createdAt,value
2022-11-23T00:01:32.465Z,2.41
2022-11-23T00:04:05.030Z,2.47
2022-11-23T00:06:32.588Z,2.42
2022-11-23T00:08:59.156Z,2.48
2022-11-23T00:11:27.874Z,2.80
2022-11-23T00:13:55.455Z,2.99
2022-11-23T00:16:25.560Z,3.10
2022-11-23T00:18:57.097Z,2.92
2022-11-23T00:21:25.475Z,2.88
2022-11-23T00:23:52.065Z,2.55
2022-11-23T00:26:19.695Z,2.90
2022-11-23T00:28:46.605Z,2.93
2022-11-23T00:31:19.028Z,2.65
2022-11-23T00:33:50.952Z,2.67
2022-11-23T00:36:17.737Z,2.76
2022-11-23T00:38:45.284Z,2.92
2022-11-23T00:41:21.217Z,2.86
2022-11-23T00:43:47.853Z,2.88
2022-11-23T00:46:23.470Z,2.85
2022-11-23T00:48:52.729Z,2.59
2022-11-23T00:51:22.629Z,2.53
2022-11-23T00:53:52.321Z,2.27
2022-11-23T00:56:19.984Z,2.56
2022-11-23T00:58:53.604Z,2.58
2022-11-23T01:01:25.934Z,2.19
2022-11-23T01:03:58.159Z,2.47
2022-11-23T01:06:30.619Z,2.41
2022-11-23T01:08:59.766Z,2.39
2022-11-23T01:11:29.337Z,2.42
2022-11-23T01:13:56.383Z,2.25
2022-11-23T01:16:26.410Z,2.52
2022-11-23T01:18:58.435Z,2.27
2022-11-23T01:21:26.592Z,2.28
2022-11-23T01:23:53.696Z,2.24
2022-11-23T01:26:20.574Z,2.30
2022-11-23T01:28:47.896Z,2.35
2022-11-23T01:31:18.961Z,2.15
2022-11-23T01:33:46.213Z,2.42
2022-11-23T01:36:18.627Z,2.26
2022-11-23T01:38:47.835Z,2.14
2022-11-23T01:41:35.614Z,2.05
2022-11-23T01:44:25.676Z,2.02
2022-11-23T01:46:52.124Z,2.18
2022-11-23T01:49:19.064Z,2.30
2022-11-23T01:51:50.401Z,2.18
2022-11-23T01:54:30.642Z,2.05
2022-11-23T01:57:03.259Z,2.08
2022-11-23T01:59:33.420Z,2.13
2022-11-23T02:02:00.233Z,2.21
2022-11-23T02:04:38.925Z,2.32
2022-11-23T02:07:06.780Z,2.36
2022-11-23T02:09:36.047Z,2.18
2022-11-23T02:12:02.553Z,2.44
2022-11-23T02:14:29.759Z,2.53
2022-11-23T02:16:59.572Z,2.37
2022-11-23T02:19:29.344Z,2.50
2022-11-23T02:21:56.126Z,2.56
2022-11-23T02:24:40.503Z,2.51
2022-11-23T02:27:07.132Z,2.47
2022-11-23T02:29:34.501Z,2.42
2022-11-23T02:32:01.077Z,2.51
2022-11-23T02:34:27.621Z,2.45
2022-11-23T02:36:57.295Z,2.52
2022-11-23T02:39:34.657Z,2.39
2022-11-23T02:42:01.194Z,2.63
2022-11-23T02:45:01.303Z,2.62
2022-11-23T02:47:27.841Z,2.95
2022-11-23T02:49:54.321Z,2.69
2022-11-23T02:52:20.823Z,2.59
2022-11-23T02:54:47.281Z,2.70
2022-11-23T02:57:13.783Z,2.80
2022-11-23T02:59:40.233Z,2.81
2022-11-23T03:02:06.850Z,3.14
2022-11-23T03:04:33.312Z,2.78
2022-11-23T03:06:59.803Z,2.85
2022-11-23T03:09:26.395Z,2.74
2022-11-23T03:11:54.258Z,2.37
2022-11-23T03:14:21.416Z,2.61
2022-11-23T03:16:47.894Z,2.42
2022-11-23T03:19:14.903Z,2.33
2022-11-23T03:21:41.347Z,2.01
2022-11-23T03:24:07.856Z,1.87
2022-11-23T03:26:34.321Z,1.99
2022-11-23T03:29:00.780Z,1.93
2022-11-23T03:31:27.220Z,1.86
2022-11-23T03:33:53.876Z,2.00
2022-11-23T03:36:20.347Z,1.81
2022-11-23T03:38:46.811Z,1.70
2022-11-23T03:41:13.265Z,1.81
2022-11-23T03:43:39.722Z,1.98
2022-11-23T03:46:06.157Z,1.76
2022-11-23T03:48:32.590Z,1.92
2022-11-23T03:50:59.033Z,1.86
2022-11-23T03:53:25.498Z,1.71
2022-11-23T03:55:51.965Z,1.90
2022-11-23T03:58:18.392Z,1.68
2022-11-23T04:00:45.361Z,1.61
2022-11-23T04:03:11.903Z,1.56
2022-11-23T04:05:38.336Z,1.74
2022-11-23T04:08:05.049Z,1.67
2022-11-23T04:10:31.513Z,1.46
2022-11-23T04:13:15.097Z,1.40
2022-11-23T04:15:53.005Z,1.48
2022-11-23T04:18:19.522Z,2.79
2022-11-23T04:20:45.992Z,2.71
2022-11-23T04:23:13.682Z,2.73
2022-11-23T04:25:40.324Z,2.56
2022-11-23T04:28:06.861Z,2.60
2022-11-23T04:30:33.340Z,2.65
2022-11-23T04:32:59.789Z,3.03
2022-11-23T04:35:26.319Z,2.96
2022-11-23T04:37:52.752Z,2.99
2022-11-23T04:40:19.180Z,2.84
2022-11-23T04:42:45.623Z,2.89
2022-11-23T04:45:12.052Z,2.84
2022-11-23T04:47:38.512Z,2.92
2022-11-23T04:50:05.964Z,2.87
2022-11-23T04:52:32.466Z,2.93
2022-11-23T04:54:58.944Z,2.86
2022-11-23T04:57:25.401Z,2.91
2022-11-23T04:59:51.855Z,3.49
2022-11-23T05:02:18.312Z,5.10
2022-11-23T05:04:44.755Z,4.86
2022-11-23T05:07:11.275Z,4.57
2022-11-23T05:09:38.340Z,4.31
2022-11-23T05:12:04.998Z,3.68
2022-11-23T05:14:31.444Z,4.29
2022-11-23T05:16:57.896Z,4.03
2022-11-23T05:19:24.336Z,4.38
2022-11-23T05:21:50.766Z,4.10
2022-11-23T05:24:17.245Z,4.10
2022-11-23T05:26:43.699Z,3.60
2022-11-23T05:29:10.185Z,3.39
2022-11-23T05:31:36.617Z,3.52
2022-11-23T05:34:03.075Z,3.74
2022-11-23T05:36:29.541Z,3.32
2022-11-23T05:38:55.966Z,3.49
2022-11-23T05:41:22.396Z,3.67
2022-11-23T05:43:48.850Z,3.45
2022-11-23T05:46:15.301Z,3.42
2022-11-23T05:48:41.853Z,3.19
2022-11-23T05:51:08.338Z,3.09
2022-11-23T05:53:34.841Z,3.40
2022-11-23T05:56:02.111Z,3.71
2022-11-23T05:58:28.906Z,3.92
2022-11-23T06:00:59.371Z,4.47
2022-11-23T06:03:26.209Z,4.49
2022-11-23T06:05:52.716Z,5.01
2022-11-23T06:08:19.335Z,5.61
2022-11-23T06:10:45.772Z,5.22
2022-11-23T06:13:12.216Z,5.02
2022-11-23T06:15:38.654Z,4.68
2022-11-23T06:18:05.195Z,4.86
2022-11-23T06:20:31.656Z,4.49
2022-11-23T06:22:58.232Z,4.57
2022-11-23T06:25:24.835Z,4.83
2022-11-23T06:28:00.073Z,5.50
2022-11-23T06:30:28.565Z,7.05
2022-11-23T06:32:55.055Z,6.48
2022-11-23T06:35:21.862Z,5.24
2022-11-23T06:37:51.806Z,5.08
2022-11-23T06:40:18.406Z,4.94
2022-11-23T06:42:44.899Z,5.12
2022-11-23T06:45:12.235Z,5.50
2022-11-23T06:47:38.813Z,5.55
2022-11-23T06:50:05.796Z,5.25
2022-11-23T06:52:32.830Z,5.20
2022-11-23T06:54:59.320Z,4.94
2022-11-23T06:57:25.771Z,4.92
2022-11-23T06:59:52.201Z,4.88
2022-11-23T07:02:18.736Z,4.38
2022-11-23T07:04:45.197Z,4.21
2022-11-23T07:07:11.725Z,4.28
2022-11-23T07:09:38.239Z,4.45
2022-11-23T07:12:04.957Z,3.95
2022-11-23T07:14:31.441Z,4.36
2022-11-23T07:16:57.883Z,4.90
2022-11-23T07:19:24.439Z,4.78
2022-11-23T07:21:50.895Z,4.68
2022-11-23T07:24:17.344Z,4.23
2022-11-23T07:26:43.818Z,4.34
2022-11-23T07:29:10.436Z,4.50
2022-11-23T07:31:36.928Z,4.81
2022-11-23T07:34:03.397Z,4.77
2022-11-23T07:36:29.874Z,4.57
2022-11-23T07:38:56.448Z,4.64
2022-11-23T07:41:22.905Z,4.79
2022-11-23T07:43:49.367Z,5.34
2022-11-23T07:46:15.831Z,5.71
2022-11-23T07:48:42.288Z,5.29
2022-11-23T07:51:08.749Z,4.93
2022-11-23T07:53:35.230Z,5.31
2022-11-23T07:56:01.710Z,4.93
2022-11-23T07:58:28.205Z,3.95
2022-11-23T08:00:54.706Z,3.48
2022-11-23T08:03:29.354Z,4.03
2022-11-23T08:05:56.322Z,4.02
2022-11-23T08:08:23.092Z,4.06
2022-11-23T08:10:53.480Z,3.96
2022-11-23T08:13:22.066Z,3.94
2022-11-23T08:15:54.328Z,4.03
2022-11-23T08:18:22.519Z,3.56
2022-11-23T08:20:48.952Z,3.77
2022-11-23T08:23:15.399Z,3.84
2022-11-23T08:25:41.862Z,3.74
2022-11-23T08:28:08.361Z,3.57
2022-11-23T08:30:35.376Z,3.40
2022-11-23T08:33:07.020Z,3.69
2022-11-23T08:35:37.422Z,3.72
2022-11-23T08:38:05.157Z,3.80
2022-11-23T08:40:32.284Z,3.93
2022-11-23T08:42:58.732Z,4.22
2022-11-23T08:45:25.386Z,3.88
2022-11-23T08:47:52.160Z,3.65
2022-11-23T08:50:19.949Z,3.76
2022-11-23T08:52:46.661Z,3.92
2022-11-23T08:55:14.582Z,3.91
2022-11-23T08:57:41.106Z,3.53
2022-11-23T09:00:08.285Z,3.88
2022-11-23T09:02:34.770Z,4.11
2022-11-23T09:05:01.249Z,3.89
2022-11-23T09:07:27.763Z,3.82
2022-11-23T09:09:54.248Z,3.80
2022-11-23T09:12:20.735Z,4.05
2022-11-23T09:14:47.165Z,4.07
2022-11-23T09:17:13.613Z,3.93
2022-11-23T09:19:40.099Z,3.88
2022-11-23T09:22:06.614Z,3.79
2022-11-23T09:24:33.350Z,3.93
2022-11-23T09:27:00.112Z,3.89
2022-11-23T09:29:26.580Z,3.66
2022-11-23T09:31:53.058Z,3.83
2022-11-23T09:34:19.797Z,3.64
2022-11-23T09:36:46.634Z,3.44
2022-11-23T09:39:13.101Z,3.22
2022-11-23T09:41:45.686Z,3.10
2022-11-23T09:44:49.808Z,2.71
2022-11-23T09:47:40.837Z,2.59
2022-11-23T09:50:07.278Z,2.31
2022-11-23T09:52:38.145Z,2.44
2022-11-23T09:55:31.097Z,2.38
2022-11-23T09:58:03.753Z,2.97
2022-11-23T10:00:53.602Z,2.63
2022-11-23T10:03:20.124Z,2.56
2022-11-23T10:06:16.389Z,2.50
2022-11-23T10:08:57.751Z,2.45
2022-11-23T10:11:27.238Z,2.55
2022-11-23T10:14:05.935Z,2.81
2022-11-23T10:16:38.287Z,2.59
2022-11-23T10:19:41.952Z,2.41
2022-11-23T10:22:36.984Z,3.01
2022-11-23T10:25:19.665Z,2.99
2022-11-23T10:27:49.308Z,3.02
2022-11-23T10:30:18.513Z,2.27
2022-11-23T10:33:10.134Z,2.42
2022-11-23T10:35:36.622Z,2.56
2022-11-23T10:38:19.376Z,2.48
2022-11-23T10:41:01.316Z,1.93
2022-11-23T10:43:37.789Z,2.32
2022-11-23T10:46:25.865Z,2.29
2022-11-23T10:48:53.907Z,1.91
2022-11-23T10:51:33.445Z,1.82
2022-11-23T10:54:06.048Z,1.63
2022-11-23T10:56:34.556Z,2.02
2022-11-23T10:59:01.256Z,2.09
2022-11-23T11:01:29.112Z,1.93
2022-11-23T11:03:59.588Z,2.20
2022-11-23T11:06:29.368Z,2.03
2022-11-23T11:09:04.544Z,1.91
2022-11-23T11:11:35.881Z,1.68
2022-11-23T11:14:21.647Z,1.93
2022-11-23T11:16:48.855Z,2.18
2022-11-23T11:19:33.043Z,2.02
2022-11-23T11:22:02.275Z,1.60
2022-11-23T11:24:36.125Z,1.73
2022-11-23T11:27:12.121Z,1.66
2022-11-23T11:29:48.843Z,1.62
2022-11-23T11:32:22.662Z,1.80
2022-11-23T11:35:08.887Z,2.08
2022-11-23T11:37:49.000Z,2.09
2022-11-23T11:40:28.252Z,1.71
2022-11-23T11:43:13.296Z,1.92
2022-11-23T11:48:39.494Z,1.93
2022-11-23T11:51:17.644Z,2.16
2022-11-23T11:53:57.334Z,2.17
2022-11-23T11:56:32.849Z,1.49
2022-11-23T11:59:33.163Z,1.56
2022-11-23T12:02:43.034Z,1.62
2022-11-23T12:05:28.818Z,1.67
2022-11-23T12:08:10.396Z,1.69
2022-11-23T12:10:50.026Z,1.95
2022-11-23T12:13:23.440Z,2.10
2022-11-23T12:16:26.080Z,1.64
2022-11-23T12:19:13.324Z,1.83
2022-11-23T12:21:47.142Z,1.86
2022-11-23T12:24:36.694Z,1.78
2022-11-23T12:27:16.636Z,1.84
2022-11-23T12:29:59.495Z,2.23
2022-11-23T12:32:53.410Z,1.73
2022-11-23T12:35:47.505Z,2.22
2022-11-23T12:38:52.565Z,1.90
2022-11-23T12:41:42.768Z,1.85
2022-11-23T12:44:21.169Z,1.76
2022-11-23T12:47:28.832Z,1.96
2022-11-23T12:50:20.205Z,1.84
2022-11-23T12:52:55.688Z,1.77
2022-11-23T12:55:50.072Z,1.70
2022-11-23T12:58:21.261Z,1.51
2022-11-23T13:01:00.980Z,1.47
2022-11-23T13:03:45.859Z,1.41
2022-11-23T13:06:31.107Z,1.61
2022-11-23T13:09:00.346Z,1.61
2022-11-23T13:12:05.533Z,1.69
2022-11-23T13:15:05.685Z,2.27
2022-11-23T13:17:52.045Z,1.70
2022-11-23T13:20:43.848Z,1.99
2022-11-23T13:23:10.676Z,1.78
2022-11-23T13:25:37.135Z,1.80
2022-11-23T13:28:25.263Z,1.83
2022-11-23T13:31:15.760Z,1.87
2022-11-23T13:33:49.442Z,2.48
2022-11-23T13:37:04.453Z,2.09
2022-11-23T13:39:51.422Z,1.88
2022-11-23T13:42:19.241Z,1.85
2022-11-23T13:44:45.846Z,2.13
2022-11-23T13:47:21.402Z,2.04
2022-11-23T13:49:53.008Z,2.07
2022-11-23T13:52:22.449Z,2.69
2022-11-23T13:55:09.284Z,2.60
2022-11-23T13:57:38.608Z,2.25
2022-11-23T14:00:52.869Z,2.68
2022-11-23T14:03:47.479Z,2.26
2022-11-23T14:06:45.392Z,2.34
2022-11-23T14:09:29.833Z,2.48
2022-11-23T14:12:29.742Z,2.01
2022-11-23T14:15:18.450Z,1.89
2022-11-23T14:18:22.396Z,2.30
2022-11-23T14:20:54.609Z,2.15
2022-11-23T14:23:34.861Z,2.58
2022-11-23T14:26:29.655Z,2.64
2022-11-23T14:29:21.286Z,2.55
2022-11-23T14:31:59.828Z,2.34
2022-11-23T14:34:55.408Z,2.18
2022-11-23T14:38:12.491Z,2.43
2022-11-23T14:41:00.366Z,2.32
2022-11-23T14:43:28.598Z,2.29
2022-11-23T14:46:02.483Z,2.40
2022-11-23T14:48:31.958Z,2.39
2022-11-23T14:51:03.706Z,2.52
2022-11-23T14:53:35.003Z,2.62
2022-11-23T14:56:01.953Z,2.27
2022-11-23T14:58:32.650Z,2.58
2022-11-23T15:01:01.423Z,2.46
2022-11-23T15:06:23.878Z,2.11
2022-11-23T15:08:57.448Z,2.46
2022-11-23T15:11:29.576Z,2.40
2022-11-23T15:13:56.035Z,2.69
2022-11-23T15:16:22.560Z,2.95
2022-11-23T15:18:49.449Z,3.67
2022-11-23T15:21:27.331Z,6.15
2022-11-23T15:23:57.663Z,3.11
2022-11-23T15:29:35.139Z,2.67
2022-11-23T15:32:35.577Z,2.66
2022-11-23T15:35:10.902Z,2.54
2022-11-23T15:37:49.923Z,2.66
2022-11-23T15:40:18.581Z,2.72
2022-11-23T15:42:49.314Z,3.58
2022-11-23T15:45:34.712Z,3.19
2022-11-23T15:48:12.260Z,2.95
2022-11-23T15:50:53.284Z,3.64
2022-11-23T15:53:25.819Z,3.96
2022-11-23T15:55:53.896Z,3.88
2022-11-23T15:58:21.338Z,3.55
2022-11-23T16:00:58.141Z,3.44
2022-11-23T16:03:33.032Z,3.29
2022-11-23T16:06:36.443Z,4.47
2022-11-23T16:12:21.822Z,3.68
2022-11-23T16:14:48.459Z,3.13
2022-11-23T16:17:23.237Z,2.71
2022-11-23T16:19:55.855Z,2.72
2022-11-23T16:22:30.890Z,2.85
2022-11-23T16:25:08.345Z,2.82
2022-11-23T16:27:36.176Z,2.89
2022-11-23T16:30:03.689Z,3.20
2022-11-23T16:32:31.827Z,3.18
2022-11-23T16:35:15.014Z,3.26
2022-11-23T16:37:41.459Z,2.77
2022-11-23T16:40:08.548Z,3.20
2022-11-23T16:42:36.425Z,3.54
2022-11-23T16:45:05.693Z,4.08
2022-11-23T16:47:33.767Z,3.54
2022-11-23T16:50:00.240Z,3.22
2022-11-23T16:52:26.725Z,3.41
2022-11-23T16:54:55.980Z,3.26
2022-11-23T16:57:27.841Z,3.36
2022-11-23T16:59:55.094Z,4.22
2022-11-23T17:02:22.042Z,4.43
2022-11-23T17:04:48.646Z,4.89
2022-11-23T17:07:15.202Z,4.26
2022-11-23T17:09:41.697Z,5.09
2022-11-23T17:12:15.815Z,5.42
2022-11-23T17:14:44.459Z,5.84
2022-11-23T17:17:17.997Z,5.57
2022-11-23T17:19:44.496Z,5.03
2022-11-23T17:22:10.942Z,4.65
2022-11-23T17:24:37.409Z,4.67
2022-11-23T17:27:03.912Z,4.56
2022-11-23T17:29:30.587Z,4.03
2022-11-23T17:31:57.398Z,3.74
2022-11-23T17:34:23.853Z,4.33
2022-11-23T17:36:52.021Z,4.54
2022-11-23T17:39:25.000Z,4.29
2022-11-23T17:41:51.584Z,3.95
2022-11-23T17:44:18.269Z,3.40
2022-11-23T17:46:46.577Z,3.14
2022-11-23T17:49:15.336Z,3.08
2022-11-23T17:51:41.794Z,3.16
2022-11-23T17:54:08.508Z,3.49
2022-11-23T17:56:35.297Z,3.55
2022-11-23T17:59:01.755Z,3.82
2022-11-23T18:01:28.241Z,4.09
2022-11-23T18:03:54.851Z,3.52
2022-11-23T18:06:23.665Z,3.52
2022-11-23T18:08:51.661Z,3.57
2022-11-23T18:11:19.331Z,3.01
2022-11-23T18:13:46.575Z,2.87
2022-11-23T18:16:13.109Z,3.04
2022-11-23T18:18:39.586Z,2.68
2022-11-23T18:21:07.409Z,2.78
2022-11-23T18:23:33.924Z,2.86
2022-11-23T18:26:05.580Z,2.47
2022-11-23T18:28:32.045Z,2.60
2022-11-23T18:30:58.492Z,2.48
2022-11-23T18:33:24.970Z,2.80
2022-11-23T18:35:51.440Z,2.87
2022-11-23T18:38:17.937Z,2.45
2022-11-23T18:40:44.529Z,2.55
2022-11-23T18:43:10.972Z,3.01
2022-11-23T18:45:37.428Z,3.22
2022-11-23T18:48:04.287Z,3.06
2022-11-23T18:50:30.748Z,4.07
2022-11-23T18:52:57.209Z,3.27
2022-11-23T18:55:23.677Z,2.95
2022-11-23T18:57:53.491Z,3.27
2022-11-23T19:00:20.719Z,3.09
2022-11-23T19:02:54.815Z,3.63
2022-11-23T19:05:22.742Z,3.63
2022-11-23T19:07:49.760Z,3.74
2022-11-23T19:10:16.541Z,3.96
2022-11-23T19:12:43.504Z,3.46
2022-11-23T19:15:11.196Z,3.03
2022-11-23T19:17:37.897Z,2.86
2022-11-23T19:20:05.955Z,2.80
2022-11-23T19:22:33.044Z,3.27
2022-11-23T19:24:59.491Z,2.65
2022-11-23T19:27:26.039Z,2.90
2022-11-23T19:29:52.502Z,2.84
2022-11-23T19:32:18.976Z,2.54
2022-11-23T19:34:45.451Z,2.51
2022-11-23T19:37:11.890Z,2.52
2022-11-23T19:39:38.368Z,2.61
2022-11-23T19:42:04.874Z,3.15
2022-11-23T19:44:31.313Z,2.78
2022-11-23T19:46:57.846Z,2.75
2022-11-23T19:49:24.339Z,3.53
2022-11-23T19:51:50.794Z,3.64
2022-11-23T19:54:17.244Z,3.19
2022-11-23T19:56:43.697Z,3.20
2022-11-23T19:59:10.144Z,3.09
2022-11-23T20:01:36.669Z,3.25
2022-11-23T20:04:08.349Z,4.25
2022-11-23T20:06:37.232Z,4.37
2022-11-23T20:09:07.388Z,3.52
2022-11-23T20:11:34.715Z,4.05
2022-11-23T20:14:01.777Z,5.78
2022-11-23T20:16:31.122Z,5.67
2022-11-23T20:19:02.868Z,5.30
2022-11-23T20:21:31.552Z,4.91
2022-11-23T20:24:05.399Z,4.21
2022-11-23T20:26:33.777Z,4.68
2022-11-23T20:29:00.375Z,4.22
2022-11-23T20:31:29.812Z,4.64
2022-11-23T20:33:57.031Z,4.77
2022-11-23T20:36:26.176Z,4.89
2022-11-23T20:38:53.753Z,5.92
2022-11-23T20:41:21.841Z,7.45
2022-11-23T20:43:51.648Z,6.92
2022-11-23T20:46:38.166Z,5.73
2022-11-23T20:49:04.512Z,4.74
2022-11-23T20:51:31.059Z,4.64
2022-11-23T20:53:58.013Z,4.44
2022-11-23T20:56:27.371Z,5.23
2022-11-23T20:58:56.436Z,5.53
2022-11-23T21:01:23.584Z,4.91
2022-11-23T21:03:52.773Z,3.55
2022-11-23T21:06:20.589Z,4.46
2022-11-23T21:08:48.966Z,4.18
2022-11-23T21:11:25.743Z,3.81
2022-11-23T21:13:52.250Z,3.79
2022-11-23T21:16:18.773Z,3.52
2022-11-23T21:18:45.297Z,4.02
2022-11-23T21:21:11.753Z,4.39
2022-11-23T21:23:38.316Z,4.63
2022-11-23T21:26:06.327Z,5.19
2022-11-23T21:28:33.630Z,4.91
2022-11-23T21:31:07.665Z,4.46
2022-11-23T21:33:36.684Z,3.55
2022-11-23T21:36:07.841Z,3.45
2022-11-23T21:38:35.094Z,3.45
2022-11-23T21:41:03.132Z,3.26
2022-11-23T21:43:29.967Z,3.30
2022-11-23T21:46:08.888Z,4.23
2022-11-23T21:48:37.185Z,6.46
2022-11-23T21:51:06.466Z,5.85
2022-11-23T21:53:33.819Z,8.38
2022-11-23T21:56:06.351Z,8.62
2022-11-23T21:58:32.835Z,5.81
2022-11-23T22:01:08.762Z,5.64
2022-11-23T22:03:36.985Z,4.60
2022-11-23T22:06:04.537Z,4.91
2022-11-23T22:08:31.290Z,4.25
2022-11-23T22:10:57.993Z,4.11
2022-11-23T22:13:24.478Z,4.54
2022-11-23T22:15:50.955Z,4.13
2022-11-23T22:18:17.533Z,3.62
2022-11-23T22:20:44.149Z,3.84
2022-11-23T22:23:12.654Z,3.55
2022-11-23T22:25:40.214Z,3.54
2022-11-23T22:28:09.422Z,3.07
2022-11-23T22:30:35.889Z,3.78
2022-11-23T22:33:02.364Z,3.61
2022-11-23T22:35:28.817Z,3.78
2022-11-23T22:37:55.308Z,3.17
2022-11-23T22:40:21.755Z,2.82
2022-11-23T22:42:48.200Z,2.69
2022-11-23T22:45:14.678Z,2.58
2022-11-23T22:47:41.119Z,2.77
2022-11-23T22:50:07.944Z,3.05
2022-11-23T22:52:34.419Z,3.07
2022-11-23T22:55:00.865Z,2.73
2022-11-23T22:57:27.322Z,2.56
2022-11-23T22:59:53.768Z,2.33
2022-11-23T23:02:20.301Z,2.41
2022-11-23T23:04:46.807Z,2.46
2022-11-23T23:07:13.363Z,2.43
2022-11-23T23:09:39.844Z,2.79
2022-11-23T23:12:06.534Z,2.83
2022-11-23T23:14:33.255Z,2.85
2022-11-23T23:16:59.934Z,3.06
2022-11-23T23:19:26.418Z,2.77
2022-11-23T23:21:52.869Z,2.62
2022-11-23T23:24:19.315Z,2.65
2022-11-23T23:26:45.780Z,2.60
2022-11-23T23:29:12.309Z,2.50
2022-11-23T23:31:38.795Z,2.55
2022-11-23T23:34:05.358Z,2.71
2022-11-23T23:36:31.823Z,2.75
2022-11-23T23:38:58.258Z,2.44
2022-11-23T23:41:24.704Z,2.61
2022-11-23T23:43:51.196Z,2.47
2022-11-23T23:46:17.865Z,2.45
2022-11-23T23:48:44.835Z,2.37
2022-11-23T23:51:16.899Z,2.37
2022-11-23T23:53:44.481Z,2.25
2022-11-23T23:56:15.510Z,2.25
2022-11-23T23:58:42.518Z,2.21
